Time;durP1;ratioP1;P1;durP2;ratioP2;P2;SDS_P1;SDS_P2;PMS_P1;PMS_P2;Temp;Humidity;BMP_temperature;BMP_pressure;BME280_temperature;BME280_humidity;BME280_pressure;Samples;Min_cycle;Max_cycle;Signal;HPM_P1;HPM_P2
2021/11/09 00:01:38;;;;;;;0.95;0.57;;;;;;;;;;5005344;28;20061;-81
2021/11/09 00:04:07;;;;;;;2.05;1.63;;;;;;;;;;5000587;28;20395;-83
2021/11/09 00:06:40;;;;;;;0.95;0.55;;;;;;;;;;5000872;28;20057;-82
2021/11/09 00:09:09;;;;;;;0.88;0.50;;;;;;;;;;4980042;28;20551;-81
2021/11/09 00:11:36;;;;;;;0.90;0.50;;;;;;;;;;5000226;28;20099;-81
2021/11/09 00:14:02;;;;;;;0.90;0.60;;;;;;;;;;5005935;28;20080;-81
2021/11/09 00:16:30;;;;;;;0.73;0.50;;;;;;;;;;4990038;28;20062;-83
2021/11/09 00:18:58;;;;;;;0.88;0.55;;;;;;;;;;4989876;28;20096;-81
2021/11/09 00:21:25;;;;;;;1.08;0.63;;;;;;;;;;5007065;28;20132;-81
2021/11/09 00:23:51;;;;;;;0.82;0.47;;;;;;;;;;5006883;28;20050;-82
2021/11/09 00:26:18;;;;;;;1.45;0.50;;;;;;;;;;5006690;28;20053;-82
2021/11/09 00:28:44;;;;;;;0.80;0.50;;;;;;;;;;4999893;28;20050;-82
2021/11/09 00:31:11;;;;;;;0.98;0.57;;;;;;;;;;5006229;28;20046;-82
2021/11/09 00:33:38;;;;;;;0.85;0.47;;;;;;;;;;5007295;28;20057;-81
2021/11/09 00:36:06;;;;;;;0.70;0.40;;;;;;;;;;5005705;28;20670;-82
2021/11/09 00:38:32;;;;;;;1.42;0.55;;;;;;;;;;5004384;28;20180;-81
2021/11/09 00:40:59;;;;;;;0.93;0.45;;;;;;;;;;5006528;28;20061;-81
2021/11/09 00:43:25;;;;;;;0.90;0.47;;;;;;;;;;4998886;28;20065;-83
2021/11/09 00:45:52;;;;;;;0.75;0.57;;;;;;;;;;4987507;28;21426;-82
2021/11/09 00:48:19;;;;;;;0.85;0.60;;;;;;;;;;5005225;28;20120;-82
2021/11/09 00:50:46;;;;;;;0.52;0.45;;;;;;;;;;4986204;28;20066;-82
2021/11/09 00:53:15;;;;;;;1.00;0.40;;;;;;;;;;4999198;28;20061;-82
2021/11/09 00:55:41;;;;;;;0.95;0.60;;;;;;;;;;5000989;28;20081;-82
2021/11/09 00:58:08;;;;;;;0.80;0.40;;;;;;;;;;5002610;28;20061;-81
2021/11/09 01:00:35;;;;;;;0.47;0.40;;;;;;;;;;5004752;28;20072;-82
2021/11/09 01:03:04;;;;;;;1.17;0.60;;;;;;;;;;4999568;28;20465;-82
2021/11/09 01:05:31;;;;;;;1.38;0.60;;;;;;;;;;5006735;28;20135;-81
2021/11/09 01:07:59;;;;;;;0.93;0.55;;;;;;;;;;5006188;28;20123;-81
2021/11/09 01:10:30;;;;;;;2.60;0.60;;;;;;;;;;5005738;28;20472;-82
2021/11/09 01:12:56;;;;;;;;;;;;;;;;;;5003926;28;20125;-82
2021/11/09 01:15:23;;;;;;;0.55;0.40;;;;;;;;;;5006698;28;19957;-81
2021/11/09 01:17:50;;;;;;;0.60;0.52;;;;;;;;;;4988446;28;20029;-80
2021/11/09 01:20:18;;;;;;;0.60;0.38;;;;;;;;;;5007499;28;20049;-83
2021/11/09 01:22:46;;;;;;;0.50;0.35;;;;;;;;;;5004429;28;20061;-82
2021/11/09 01:25:13;;;;;;;0.75;0.40;;;;;;;;;;4994020;28;20062;-83
2021/11/09 01:27:40;;;;;;;0.70;0.45;;;;;;;;;;5006069;28;20061;-83
2021/11/09 01:30:07;;;;;;;0.65;0.40;;;;;;;;;;5006451;28;20065;-83
2021/11/09 01:32:34;;;;;;;0.75;0.50;;;;;;;;;;5008886;28;20053;-83
2021/11/09 01:35:00;;;;;;;2.00;0.52;;;;;;;;;;5006468;28;20062;-84
2021/11/09 01:37:27;;;;;;;1.25;0.70;;;;;;;;;;4997798;28;20053;-84
2021/11/09 01:39:53;;;;;;;1.45;0.60;;;;;;;;;;5002870;28;20070;-84
2021/11/09 01:42:20;;;;;;;0.80;0.40;;;;;;;;;;4999380;28;20490;-81
2021/11/09 01:44:46;;;;;;;1.15;0.50;;;;;;;;;;5004235;28;20073;-83
2021/11/09 01:47:13;;;;;;;0.88;0.45;;;;;;;;;;5006011;28;20103;-83
2021/11/09 01:49:39;;;;;;;1.90;0.40;;;;;;;;;;5004532;28;20493;-82
2021/11/09 01:52:05;;;;;;;1.38;0.60;;;;;;;;;;5011819;28;20070;-85
2021/11/09 01:54:32;;;;;;;0.65;0.40;;;;;;;;;;5004280;28;20077;-84
2021/11/09 01:56:58;;;;;;;0.50;0.40;;;;;;;;;;5005431;28;20476;-83
2021/11/09 01:59:29;;;;;;;1.40;0.40;;;;;;;;;;5008245;28;20065;-81
2021/11/09 02:01:55;;;;;;;1.07;0.47;;;;;;;;;;5003494;28;21334;-84
2021/11/09 02:04:22;;;;;;;1.20;0.40;;;;;;;;;;5003931;28;20057;-83
2021/11/09 02:06:48;;;;;;;1.00;0.50;;;;;;;;;;5004796;28;20088;-82
2021/11/09 02:09:16;;;;;;;0.65;0.40;;;;;;;;;;5006868;28;20061;-83
2021/11/09 02:11:44;;;;;;;0.82;0.40;;;;;;;;;;5007689;28;20064;-84
2021/11/09 02:14:11;;;;;;;0.85;0.40;;;;;;;;;;4990282;28;20095;-83
2021/11/09 02:16:38;;;;;;;1.35;0.40;;;;;;;;;;5006031;28;20135;-83
2021/11/09 02:19:05;;;;;;;1.10;0.40;;;;;;;;;;5008912;28;20061;-83
2021/11/09 02:21:32;;;;;;;0.60;0.32;;;;;;;;;;5009019;28;20058;-81
2021/11/09 02:23:59;;;;;;;0.68;0.40;;;;;;;;;;5010947;28;20053;-81
2021/11/09 02:26:26;;;;;;;1.58;0.45;;;;;;;;;;5009852;28;20569;-83
2021/11/09 02:28:55;;;;;;;0.30;0.30;;;;;;;;;;5010604;28;20041;-81
2021/11/09 02:31:22;;;;;;;0.38;0.38;;;;;;;;;;5009203;28;20054;-82
2021/11/09 02:33:48;;;;;;;0.47;0.30;;;;;;;;;;5008782;28;20080;-82
2021/11/09 02:36:17;;;;;;;1.17;0.52;;;;;;;;;;4998233;28;20031;-82
2021/11/09 02:38:44;;;;;;;0.30;0.30;;;;;;;;;;5006798;28;20196;-83
2021/11/09 02:41:10;;;;;;;0.47;0.30;;;;;;;;;;5009894;28;20053;-82
2021/11/09 02:43:37;;;;;;;0.60;0.35;;;;;;;;;;5006557;28;20057;-83
2021/11/09 02:46:28;;;;;;;0.85;0.30;;;;;;;;;;5011583;28;20062;-83
2021/11/09 02:49:22;;;;;;;0.30;0.30;;;;;;;;;;5007096;28;20887;-83
2021/11/09 02:51:47;;;;;;;0.65;0.40;;;;;;;;;;5007706;28;20030;-82
2021/11/09 02:54:22;;;;;;;0.65;0.38;;;;;;;;;;5006054;28;20504;-83
2021/11/09 02:57:04;;;;;;;1.00;0.40;;;;;;;;;;5007082;28;20057;-83
2021/11/09 02:59:51;;;;;;;0.60;0.50;;;;;;;;;;5008846;28;20533;-80
2021/11/09 03:05:15;;;;;;;1.05;0.30;;;;;;;;;;5007795;28;21395;-81
2021/11/09 03:07:51;;;;;;;1.50;0.50;;;;;;;;;;5002557;28;20030;-80
2021/11/09 03:10:34;;;;;;;0.75;0.50;;;;;;;;;;5009214;28;20127;-83
2021/11/09 03:13:02;;;;;;;0.38;0.38;;;;;;;;;;5008457;28;21182;-81
2021/11/09 03:15:31;;;;;;;0.50;0.30;;;;;;;;;;5006956;28;20069;-82
2021/11/09 03:18:07;;;;;;;0.88;0.40;;;;;;;;;;5010936;28;20506;-80
2021/11/09 03:20:43;;;;;;;0.85;0.40;;;;;;;;;;5009698;28;20104;-80
2021/11/09 03:45:08;;;;;;;0.45;0.40;;;;;;;;;;5004086;28;20349;-79
2021/11/09 03:47:41;;;;;;;1.30;0.47;;;;;;;;;;5008577;28;20057;-80
2021/11/09 03:50:09;;;;;;;1.35;0.40;;;;;;;;;;5014055;28;20078;-82
2021/11/09 03:52:50;;;;;;;0.55;0.32;;;;;;;;;;5009061;28;20069;-82
2021/11/09 03:55:36;;;;;;;0.65;0.47;;;;;;;;;;5006801;28;20716;-82
2021/11/09 03:58:21;;;;;;;1.13;0.32;;;;;;;;;;5005135;28;21428;-82
2021/11/09 04:06:04;;;;;;;0.40;0.30;;;;;;;;;;5007075;28;20034;-83
2021/11/09 04:11:26;;;;;;;0.60;0.30;;;;;;;;;;5010319;28;20097;-82
2021/11/09 04:17:13;;;;;;;0.75;0.40;;;;;;;;;;4926931;29;20063;-82
2021/11/09 04:19:56;;;;;;;1.52;0.38;;;;;;;;;;4929662;29;20071;-83
2021/11/09 05:10:17;;;;;;;0.50;0.30;;;;;;;;;;5007344;28;20571;-82
2021/11/09 05:12:44;;;;;;;3.85;0.55;;;;;;;;;;5001876;28;20084;-79
2021/11/09 05:15:11;;;;;;;1.20;0.32;;;;;;;;;;5004011;28;20135;-81
2021/11/09 05:17:37;;;;;;;0.60;0.40;;;;;;;;;;5004002;28;20128;-81
2021/11/09 05:20:04;;;;;;;0.30;0.30;;;;;;;;;;5003515;28;20840;-82
2021/11/09 05:22:30;;;;;;;5.60;0.30;;;;;;;;;;5003589;28;20065;-82
2021/11/09 05:24:57;;;;;;;0.38;0.30;;;;;;;;;;5006046;28;20114;-82
2021/11/09 05:27:26;;;;;;;0.38;0.20;;;;;;;;;;4984790;28;20050;-82
2021/11/09 05:29:54;;;;;;;1.95;0.35;;;;;;;;;;5005021;28;20148;-83
2021/11/09 05:32:21;;;;;;;0.43;0.30;;;;;;;;;;5006351;28;20061;-82
2021/11/09 05:34:47;;;;;;;1.42;0.50;;;;;;;;;;4999393;28;20062;-82
2021/11/09 05:37:16;;;;;;;0.85;0.38;;;;;;;;;;5007798;28;20068;-82
2021/11/09 05:39:51;;;;;;;0.75;0.32;;;;;;;;;;5007451;28;20055;-82
2021/11/09 05:42:18;;;;;;;1.45;0.40;;;;;;;;;;4989580;28;20123;-80
2021/11/09 05:44:44;;;;;;;0.40;0.30;;;;;;;;;;5010965;28;20072;-82
2021/11/09 05:47:11;;;;;;;1.30;0.45;;;;;;;;;;5007247;28;20061;-82
2021/11/09 05:49:39;;;;;;;0.50;0.30;;;;;;;;;;5002604;28;20082;-82
2021/11/09 05:52:05;;;;;;;1.38;0.32;;;;;;;;;;5006613;28;20513;-82
2021/11/09 05:54:31;;;;;;;1.05;0.25;;;;;;;;;;4987308;28;20124;-81
2021/11/09 05:56:58;;;;;;;1.60;0.38;;;;;;;;;;4967933;28;20045;-81
2021/11/09 05:59:24;;;;;;;0.45;0.30;;;;;;;;;;4999555;28;20053;-83
2021/11/09 06:01:51;;;;;;;1.15;0.40;;;;;;;;;;4984644;28;20058;-82
2021/11/09 06:04:17;;;;;;;0.77;0.43;;;;;;;;;;4991233;28;20062;-83
2021/11/09 06:06:44;;;;;;;0.52;0.30;;;;;;;;;;4993138;28;20073;-83
2021/11/09 06:09:10;;;;;;;0.20;0.20;;;;;;;;;;4991647;28;20061;-83
2021/11/09 06:11:37;;;;;;;0.55;0.32;;;;;;;;;;4988556;28;20070;-84
2021/11/09 06:14:04;;;;;;;0.63;0.30;;;;;;;;;;4988323;28;20038;-83
2021/11/09 06:16:30;;;;;;;1.67;0.40;;;;;;;;;;4987909;28;20073;-83
2021/11/09 06:18:57;;;;;;;0.57;0.30;;;;;;;;;;4996147;28;20062;-83
2021/11/09 06:21:23;;;;;;;0.25;0.20;;;;;;;;;;4964922;28;20046;-79
2021/11/09 06:23:50;;;;;;;0.55;0.40;;;;;;;;;;4985887;28;20050;-81
2021/11/09 06:26:17;;;;;;;1.52;0.30;;;;;;;;;;4987128;28;20061;-82
2021/11/09 06:28:43;;;;;;;1.40;0.38;;;;;;;;;;4969414;28;20131;-82
2021/11/09 06:31:10;;;;;;;0.20;0.20;;;;;;;;;;4985781;28;20445;-83
2021/11/09 06:33:36;;;;;;;0.25;0.20;;;;;;;;;;4986296;28;20066;-84
2021/11/09 06:36:03;;;;;;;0.93;0.20;;;;;;;;;;4988218;28;20062;-84
2021/11/09 06:38:30;;;;;;;0.30;0.20;;;;;;;;;;4987650;28;20061;-82
2021/11/09 06:40:57;;;;;;;1.15;0.40;;;;;;;;;;4986904;28;20057;-83
2021/11/09 06:43:23;;;;;;;0.63;0.30;;;;;;;;;;4984368;28;20068;-83
2021/11/09 06:45:50;;;;;;;0.35;0.10;;;;;;;;;;4983714;28;20073;-82
2021/11/09 06:48:19;;;;;;;0.60;0.30;;;;;;;;;;4985003;28;20054;-83
2021/11/09 06:50:46;;;;;;;0.47;0.35;;;;;;;;;;4987277;28;20637;-82
2021/11/09 06:53:12;;;;;;;0.65;0.20;;;;;;;;;;4981893;28;20108;-81
2021/11/09 06:55:39;;;;;;;0.60;0.30;;;;;;;;;;5006060;28;20057;-81
2021/11/09 06:58:05;;;;;;;1.52;0.30;;;;;;;;;;5009540;28;20124;-82
2021/11/09 07:00:32;;;;;;;0.57;0.20;;;;;;;;;;4988666;28;20053;-81
2021/11/09 07:02:58;;;;;;;0.60;0.28;;;;;;;;;;5008156;28;20050;-82
2021/11/09 07:05:25;;;;;;;0.50;0.40;;;;;;;;;;5009064;28;20516;-84
2021/11/09 07:07:52;;;;;;;0.20;0.20;;;;;;;;;;5009692;28;20058;-83
2021/11/09 07:10:18;;;;;;;0.35;0.28;;;;;;;;;;5008473;28;20050;-81
2021/11/09 07:12:45;;;;;;;0.50;0.40;;;;;;;;;;5007810;28;20062;-83
2021/11/09 07:15:12;;;;;;;0.55;0.22;;;;;;;;;;5002858;28;20094;-82
2021/11/09 07:17:39;;;;;;;0.15;0.10;;;;;;;;;;5005859;28;20127;-82
2021/11/09 07:20:07;;;;;;;1.05;0.20;;;;;;;;;;4988885;28;20076;-83
2021/11/09 07:22:34;;;;;;;0.80;0.40;;;;;;;;;;5006905;28;20060;-82
2021/11/09 07:25:01;;;;;;;0.17;0.13;;;;;;;;;;5008325;28;20053;-82
2021/11/09 07:27:28;;;;;;;0.55;0.40;;;;;;;;;;4992569;28;20085;-83
2021/11/09 07:29:55;;;;;;;0.35;0.20;;;;;;;;;;5006512;28;20107;-83
2021/11/09 07:32:24;;;;;;;0.40;0.28;;;;;;;;;;5009643;28;20054;-83
2021/11/09 07:34:51;;;;;;;0.65;0.30;;;;;;;;;;5005976;28;20108;-83
2021/11/09 07:37:18;;;;;;;0.60;0.30;;;;;;;;;;4991276;28;20088;-83
2021/11/09 07:39:44;;;;;;;0.73;0.32;;;;;;;;;;4996920;28;20070;-83
2021/11/09 07:42:11;;;;;;;0.43;0.25;;;;;;;;;;5003761;28;20454;-83
2021/11/09 07:44:37;;;;;;;1.77;0.57;;;;;;;;;;5003599;28;20143;-83
2021/11/09 07:47:04;;;;;;;0.40;0.20;;;;;;;;;;5007654;28;20616;-83
2021/11/09 07:49:31;;;;;;;0.40;0.35;;;;;;;;;;5003467;28;20115;-82
2021/11/09 07:52:00;;;;;;;0.30;0.20;;;;;;;;;;5008186;28;20057;-83
2021/11/09 07:54:32;;;;;;;0.20;0.20;;;;;;;;;;5011781;28;20058;-84
2021/11/09 07:57:06;;;;;;;1.00;0.35;;;;;;;;;;5001497;28;20510;-84
2021/11/09 07:59:39;;;;;;;0.40;0.20;;;;;;;;;;5007601;28;20116;-84
2021/11/09 08:02:11;;;;;;;0.52;0.40;;;;;;;;;;5007217;28;20061;-83
2021/11/09 08:04:44;;;;;;;;;;;;;;;;;;5006190;28;20165;-84
2021/11/09 08:07:23;;;;;;;0.82;0.30;;;;;;;;;;5005802;28;19969;-82
2021/11/09 08:09:50;;;;;;;0.73;0.30;;;;;;;;;;5009449;28;20458;-81
2021/11/09 08:12:16;;;;;;;0.55;0.30;;;;;;;;;;5006134;28;20201;-83
2021/11/09 08:14:43;;;;;;;1.33;0.40;;;;;;;;;;5006927;28;20115;-83
2021/11/09 08:17:09;;;;;;;0.40;0.20;;;;;;;;;;5006549;28;20082;-82
2021/11/09 08:19:36;;;;;;;0.52;0.30;;;;;;;;;;5004139;28;20062;-83
2021/11/09 08:22:03;;;;;;;0.68;0.28;;;;;;;;;;5008161;28;20669;-84
2021/11/09 08:24:30;;;;;;;0.68;0.30;;;;;;;;;;5011229;28;20062;-81
2021/11/09 08:26:57;;;;;;;0.45;0.30;;;;;;;;;;5009025;28;20049;-85
2021/11/09 08:29:26;;;;;;;0.40;0.20;;;;;;;;;;5008698;28;20101;-82
2021/11/09 08:31:54;;;;;;;0.30;0.20;;;;;;;;;;5007171;28;20498;-84
2021/11/09 08:34:21;;;;;;;0.98;0.47;;;;;;;;;;5007505;28;20061;-83
2021/11/09 08:36:48;;;;;;;0.60;0.30;;;;;;;;;;5006429;28;20061;-82
2021/11/09 08:44:35;;;;;;;1.10;0.47;;;;;;;;;;5002682;28;20131;-83
2021/11/09 08:47:03;;;;;;;1.35;0.40;;;;;;;;;;5007759;28;20482;-84
2021/11/09 08:49:32;;;;;;;1.20;0.30;;;;;;;;;;5006434;28;20057;-83
2021/11/09 08:52:00;;;;;;;0.22;0.20;;;;;;;;;;5006781;28;20057;-84
2021/11/09 08:54:36;;;;;;;1.27;0.40;;;;;;;;;;4993131;28;20077;-84
2021/11/09 09:05:40;;;;;;;2.22;0.60;;;;;;;;;;4969240;28;20541;-83
2021/11/09 09:08:06;;;;;;;1.90;0.47;;;;;;;;;;4986255;28;20085;-83
2021/11/09 09:10:33;;;;;;;1.48;0.50;;;;;;;;;;4987293;28;20057;-82
2021/11/09 09:12:59;;;;;;;0.68;0.30;;;;;;;;;;4989042;28;20061;-83
2021/11/09 09:15:25;;;;;;;2.25;0.40;;;;;;;;;;4985388;28;20081;-82
2021/11/09 09:17:52;;;;;;;1.02;0.38;;;;;;;;;;4985911;28;20057;-83
2021/11/09 09:20:26;;;;;;;1.52;0.47;;;;;;;;;;4988589;28;20647;-82
2021/11/09 09:31:05;;;;;;;0.98;0.50;;;;;;;;;;4986616;28;20089;-81
2021/11/09 09:57:27;;;;;;;0.93;0.40;;;;;;;;;;5009931;28;20575;-82
2021/11/09 09:59:54;;;;;;;1.02;0.50;;;;;;;;;;5005444;28;20066;-83
2021/11/09 10:02:24;;;;;;;0.95;0.40;;;;;;;;;;5010715;28;20058;-82
2021/11/09 10:04:54;;;;;;;1.00;0.30;;;;;;;;;;5005531;28;20057;-82
2021/11/09 10:07:34;;;;;;;1.23;0.57;;;;;;;;;;5007491;28;20081;-82
2021/11/09 10:10:02;;;;;;;0.65;0.30;;;;;;;;;;5000975;28;20397;-83
2021/11/09 10:12:35;;;;;;;0.55;0.30;;;;;;;;;;5009789;28;20045;-83
2021/11/09 10:15:12;;;;;;;0.55;0.30;;;;;;;;;;5012928;28;20489;-82
2021/11/09 10:17:40;;;;;;;1.65;0.30;;;;;;;;;;5010299;28;20180;-83
2021/11/09 10:20:23;;;;;;;0.80;0.32;;;;;;;;;;5015453;28;20372;-83
2021/11/09 10:23:01;;;;;;;1.00;0.50;;;;;;;;;;5014735;28;20042;-83
2021/11/09 10:25:28;;;;;;;1.00;0.50;;;;;;;;;;5022342;28;20081;-81
2021/11/09 10:27:58;;;;;;;1.17;0.43;;;;;;;;;;5027558;28;20092;-84
2021/11/09 10:30:27;;;;;;;0.60;0.43;;;;;;;;;;5026700;28;20345;-83
2021/11/09 10:32:54;;;;;;;0.28;0.20;;;;;;;;;;5025285;28;20041;-83
2021/11/09 10:35:21;;;;;;;1.15;0.60;;;;;;;;;;5025296;28;20033;-82
2021/11/09 10:37:57;;;;;;;1.90;0.50;;;;;;;;;;5024844;28;20065;-83
2021/11/09 10:40:29;;;;;;;0.50;0.35;;;;;;;;;;4969403;28;20030;-84
2021/11/09 10:43:03;;;;;;;0.60;0.45;;;;;;;;;;5012482;28;20034;-83
2021/11/09 10:45:33;;;;;;;1.10;0.50;;;;;;;;;;5008001;28;20547;-81
2021/11/09 10:48:01;;;;;;;1.13;0.43;;;;;;;;;;5010192;28;20025;-83
2021/11/09 10:50:31;;;;;;;1.08;0.40;;;;;;;;;;5008095;28;20567;-83
2021/11/09 10:53:00;;;;;;;1.40;0.40;;;;;;;;;;4984960;28;20062;-83
2021/11/09 10:55:45;;;;;;;0.57;0.28;;;;;;;;;;4998979;28;20070;-83
2021/11/09 11:06:25;;;;;;;1.35;0.40;;;;;;;;;;5002690;28;20726;-82
2021/11/09 11:08:58;;;;;;;0.80;0.40;;;;;;;;;;4999900;28;20053;-83
2021/11/09 11:11:26;;;;;;;1.05;0.40;;;;;;;;;;4994551;28;20061;-83
2021/11/09 11:14:11;;;;;;;0.50;0.30;;;;;;;;;;5006849;28;20085;-83
2021/11/09 11:16:43;;;;;;;0.65;0.50;;;;;;;;;;4999254;28;20064;-83
2021/11/09 11:19:11;;;;;;;0.50;0.30;;;;;;;;;;5007760;28;20058;-84
2021/11/09 11:21:38;;;;;;;0.65;0.40;;;;;;;;;;4991172;28;20742;-84
2021/11/09 11:24:05;;;;;;;2.83;0.60;;;;;;;;;;5006547;28;20061;-85
2021/11/09 11:26:33;;;;;;;0.47;0.38;;;;;;;;;;4994406;28;20505;-84
2021/11/09 11:28:59;;;;;;;1.27;0.30;;;;;;;;;;5008051;28;20057;-84
2021/11/09 11:31:27;;;;;;;0.75;0.32;;;;;;;;;;4989899;28;20478;-84
2021/11/09 11:33:53;;;;;;;1.88;0.70;;;;;;;;;;5012701;28;20057;-84
2021/11/09 11:36:19;;;;;;;1.05;0.47;;;;;;;;;;5007358;28;20068;-84
2021/11/09 11:38:48;;;;;;;1.30;0.50;;;;;;;;;;5008615;28;20049;-85
2021/11/09 11:41:15;;;;;;;1.15;0.50;;;;;;;;;;5009719;28;20070;-83
2021/11/09 11:43:48;;;;;;;0.65;0.32;;;;;;;;;;5008833;28;20125;-86
2021/11/09 11:46:37;;;;;;;1.25;0.50;;;;;;;;;;5007695;28;20054;-85
2021/11/09 11:49:07;;;;;;;1.80;0.65;;;;;;;;;;5014049;28;21292;-85
2021/11/09 11:51:54;;;;;;;1.58;0.50;;;;;;;;;;5006807;28;20058;-85
2021/11/09 11:54:37;;;;;;;2.00;0.50;;;;;;;;;;5002001;28;20128;-84
2021/11/09 11:57:04;;;;;;;1.08;0.50;;;;;;;;;;5008289;28;20701;-85
2021/11/09 11:59:33;;;;;;;0.93;0.50;;;;;;;;;;5005988;28;20088;-83
2021/11/09 12:02:06;;;;;;;1.58;0.50;;;;;;;;;;5010422;28;20492;-82
2021/11/09 12:04:42;;;;;;;1.13;0.50;;;;;;;;;;4992392;28;20048;-81
2021/11/09 12:07:10;;;;;;;0.65;0.40;;;;;;;;;;5006804;28;20062;-83
2021/11/09 12:09:40;;;;;;;0.40;0.35;;;;;;;;;;5007865;28;20050;-83
2021/11/09 12:12:12;;;;;;;0.90;0.30;;;;;;;;;;5009811;28;20073;-84
2021/11/09 12:14:46;;;;;;;0.70;0.50;;;;;;;;;;5011398;28;20068;-83
2021/11/09 12:17:13;;;;;;;0.57;0.30;;;;;;;;;;5008598;28;20092;-84
2021/11/09 12:19:47;;;;;;;1.63;0.43;;;;;;;;;;5006197;28;20127;-83
2021/11/09 12:22:17;;;;;;;0.52;0.40;;;;;;;;;;5000059;28;20553;-83
2021/11/09 12:24:52;;;;;;;1.52;0.63;;;;;;;;;;5006306;28;20076;-84
2021/11/09 12:27:20;;;;;;;1.20;0.50;;;;;;;;;;5008398;28;20156;-84
2021/11/09 12:29:51;;;;;;;1.67;0.70;;;;;;;;;;5003818;28;20758;-82
2021/11/09 12:32:24;;;;;;;2.75;1.42;;;;;;;;;;5008626;28;20128;-83
2021/11/09 12:35:02;;;;;;;2.90;1.60;;;;;;;;;;5001842;28;20457;-83
2021/11/09 12:37:29;;;;;;;2.05;1.58;;;;;;;;;;5004750;28;20123;-84
2021/11/09 12:40:15;;;;;;;2.92;1.40;;;;;;;;;;5007320;28;20064;-85
2021/11/09 12:43:00;;;;;;;3.13;1.30;;;;;;;;;;5007278;28;20602;-84
2021/11/09 12:45:30;;;;;;;3.15;1.20;;;;;;;;;;5011489;28;20061;-85
2021/11/09 12:48:01;;;;;;;4.50;1.25;;;;;;;;;;5007463;28;20343;-84
2021/11/09 12:50:28;;;;;;;;;;;;;;;;;;5006767;28;20496;-81
2021/11/09 12:53:05;;;;;;;2.45;1.00;;;;;;;;;;5007110;28;19944;-80
2021/11/09 12:55:32;;;;;;;4.40;1.02;;;;;;;;;;5005971;28;20070;-80
2021/11/09 12:58:15;;;;;;;2.15;0.70;;;;;;;;;;4990168;28;20121;-80
2021/11/09 13:00:46;;;;;;;1.25;0.75;;;;;;;;;;5006453;28;20135;-84
2021/11/09 13:03:22;;;;;;;3.25;0.90;;;;;;;;;;5008849;28;20060;-82
2021/11/09 13:05:54;;;;;;;1.30;0.85;;;;;;;;;;5004770;28;20069;-84
2021/11/09 13:08:29;;;;;;;1.17;0.70;;;;;;;;;;5007653;28;20065;-84
2021/11/09 13:10:58;;;;;;;1.98;0.80;;;;;;;;;;5006169;28;21377;-84
2021/11/09 13:13:24;;;;;;;1.13;0.70;;;;;;;;;;5009450;28;20061;-84
2021/11/09 13:15:51;;;;;;;1.27;0.75;;;;;;;;;;5005933;28;20116;-84
2021/11/09 13:18:19;;;;;;;1.70;0.65;;;;;;;;;;5009412;28;20076;-83
2021/11/09 13:20:50;;;;;;;2.05;0.75;;;;;;;;;;5002554;28;20160;-83
2021/11/09 13:23:20;;;;;;;1.38;0.80;;;;;;;;;;5007913;28;20056;-84
2021/11/09 13:25:58;;;;;;;2.53;0.60;;;;;;;;;;5003312;28;20061;-84
2021/11/09 13:28:34;;;;;;;1.15;0.70;;;;;;;;;;4996923;28;20115;-83
2021/11/09 13:31:09;;;;;;;2.00;0.73;;;;;;;;;;5004179;28;20049;-84
2021/11/09 13:33:42;;;;;;;1.20;0.65;;;;;;;;;;4999584;28;20054;-83
2021/11/09 13:36:09;;;;;;;2.13;0.77;;;;;;;;;;5002946;28;20146;-85
2021/11/09 13:38:38;;;;;;;2.30;0.82;;;;;;;;;;5003089;28;20050;-82
2021/11/09 13:41:17;;;;;;;2.05;0.88;;;;;;;;;;5008053;28;20064;-83
2021/11/09 13:44:02;;;;;;;2.58;0.70;;;;;;;;;;5005749;28;20053;-82
2021/11/09 13:46:32;;;;;;;2.75;0.90;;;;;;;;;;5004482;28;20203;-83
2021/11/09 13:49:06;;;;;;;2.10;0.65;;;;;;;;;;5007993;28;20058;-87
2021/11/09 13:51:41;;;;;;;2.22;0.70;;;;;;;;;;5007562;28;20042;-88
2021/11/09 13:54:21;;;;;;;1.60;0.82;;;;;;;;;;5006819;28;20211;-88
2021/11/09 13:56:51;;;;;;;1.50;0.70;;;;;;;;;;5011598;28;20111;-87
2021/11/09 13:59:23;;;;;;;2.85;0.80;;;;;;;;;;5006434;28;20058;-81
2021/11/09 14:02:38;;;;;;;5.15;0.80;;;;;;;;;;5005891;28;20073;-80
2021/11/09 14:10:40;;;;;;;1.75;0.73;;;;;;;;;;5008257;28;20107;-80
2021/11/09 14:18:33;;;;;;;1.02;0.50;;;;;;;;;;5003081;28;20025;-80
2021/11/09 14:21:07;;;;;;;1.38;0.57;;;;;;;;;;5011992;28;20119;-82
2021/11/09 14:23:37;;;;;;;1.65;0.75;;;;;;;;;;5004716;28;20034;-80
2021/11/09 14:26:18;;;;;;;2.60;0.90;;;;;;;;;;5007974;28;20057;-81
2021/11/09 14:28:45;;;;;;;2.45;0.80;;;;;;;;;;5006073;28;20513;-81
2021/11/09 14:31:11;;;;;;;2.20;1.00;;;;;;;;;;5006358;28;20080;-82
2021/11/09 14:33:38;;;;;;;1.83;0.60;;;;;;;;;;5004927;28;20100;-83
2021/11/09 14:36:20;;;;;;;2.17;0.80;;;;;;;;;;5005840;28;20066;-84
2021/11/09 14:38:52;;;;;;;1.90;0.52;;;;;;;;;;5008075;28;20033;-84
2021/11/09 14:41:25;;;;;;;2.63;0.90;;;;;;;;;;5006120;28;20542;-85
2021/11/09 14:44:02;;;;;;;2.65;0.70;;;;;;;;;;5004932;28;20124;-84
2021/11/09 14:46:36;;;;;;;3.15;0.77;;;;;;;;;;5006764;28;20053;-83
2021/11/09 14:49:11;;;;;;;2.95;0.70;;;;;;;;;;5003305;28;20034;-82
2021/11/09 14:51:37;;;;;;;2.47;0.70;;;;;;;;;;5006794;28;20138;-84
2021/11/09 14:56:37;;;;;;;1.75;0.80;;;;;;;;;;4983269;28;20060;-81
2021/11/09 14:59:07;;;;;;;2.08;0.80;;;;;;;;;;4981427;28;20058;-80
2021/11/09 15:01:42;;;;;;;2.33;0.93;;;;;;;;;;4982595;28;20069;-81
2021/11/09 15:04:12;;;;;;;2.50;0.80;;;;;;;;;;4985864;28;20039;-80
2021/11/09 15:25:44;;;;;;;1.83;0.70;;;;;;;;;;4987280;28;20030;-81
2021/11/09 15:28:21;;;;;;;1.55;0.80;;;;;;;;;;4986939;28;20045;-80
2021/11/09 15:33:30;;;;;;;3.00;0.95;;;;;;;;;;4996356;28;20422;-81
2021/11/09 15:38:30;;;;;;;4.60;1.10;;;;;;;;;;4987066;28;20061;-81
2021/11/09 15:40:57;;;;;;;2.60;1.00;;;;;;;;;;4990916;28;20316;-80
2021/11/09 15:43:23;;;;;;;3.13;1.05;;;;;;;;;;4992525;28;20061;-80
2021/11/09 15:45:53;;;;;;;3.30;1.00;;;;;;;;;;4989693;28;20034;-79
2021/11/09 15:48:19;;;;;;;4.45;1.05;;;;;;;;;;4988559;28;20120;-79
2021/11/09 15:50:46;;;;;;;3.17;1.02;;;;;;;;;;4989003;28;20063;-79
2021/11/09 15:53:13;;;;;;;3.60;1.10;;;;;;;;;;4989261;28;20108;-80
2021/11/09 15:55:39;;;;;;;1.50;0.80;;;;;;;;;;5007785;28;20085;-80
2021/11/09 15:58:06;;;;;;;2.55;0.90;;;;;;;;;;5005724;28;20607;-81
2021/11/09 16:00:33;;;;;;;2.05;1.00;;;;;;;;;;5004239;28;20062;-80
2021/11/09 16:03:00;;;;;;;2.30;1.10;;;;;;;;;;5007372;28;20061;-87
2021/11/09 16:05:26;;;;;;;3.75;1.30;;;;;;;;;;5007622;28;20062;-80
2021/11/09 16:07:54;;;;;;;4.05;1.23;;;;;;;;;;5006002;28;20057;-80
2021/11/09 16:10:21;;;;;;;2.15;1.00;;;;;;;;;;5006168;28;20131;-81
2021/11/09 16:12:48;;;;;;;2.53;1.00;;;;;;;;;;5006098;28;20123;-81
2021/11/09 16:15:15;;;;;;;2.13;0.90;;;;;;;;;;4996893;28;20069;-81
2021/11/09 16:17:42;;;;;;;2.47;1.05;;;;;;;;;;4993978;28;20528;-80
2021/11/09 16:20:09;;;;;;;2.55;0.82;;;;;;;;;;5006664;28;20064;-80
2021/11/09 16:22:36;;;;;;;3.17;1.17;;;;;;;;;;5004464;28;20057;-81
2021/11/09 16:25:08;;;;;;;3.50;1.30;;;;;;;;;;5004667;28;20552;-80
2021/11/09 16:27:35;;;;;;;3.15;1.27;;;;;;;;;;5004265;28;20077;-81
2021/11/09 16:30:04;;;;;;;2.75;1.00;;;;;;;;;;5005081;28;20501;-83
2021/11/09 16:32:32;;;;;;;2.30;1.08;;;;;;;;;;5003936;28;20070;-83
2021/11/09 16:37:45;;;;;;;2.97;1.10;;;;;;;;;;5004301;28;20117;-82
2021/11/09 16:40:15;;;;;;;13.45;3.90;;;;;;;;;;5006125;28;20069;-82
2021/11/09 16:42:55;;;;;;;15.15;4.43;;;;;;;;;;5006417;28;20069;-82
2021/11/09 16:45:25;;;;;;;17.88;4.28;;;;;;;;;;5008211;28;20610;-82
2021/11/09 16:47:51;;;;;;;11.48;3.88;;;;;;;;;;5003503;28;20062;-81
2021/11/09 16:52:46;;;;;;;13.35;4.07;;;;;;;;;;5005563;28;20099;-81
2021/11/09 16:59:08;;;;;;;12.30;5.03;;;;;;;;;;5011205;28;20045;-82
2021/11/09 17:00:54;;;;;;;9.68;2.53;;;;;;;;;;4987707;28;20077;-81
2021/11/09 18:20:11;;;;;;;5.97;1.88;;;;;;;;;;5006775;28;20064;-84
2021/11/09 18:22:40;;;;;;;6.65;1.80;;;;;;;;;;5008929;28;20050;-83
2021/11/09 18:25:09;;;;;;;4.65;1.90;;;;;;;;;;5005601;28;20668;-83
2021/11/09 18:27:36;;;;;;;3.95;1.60;;;;;;;;;;5004567;28;20111;-83
2021/11/09 18:30:05;;;;;;;7.72;1.85;;;;;;;;;;5004545;28;20061;-83
2021/11/09 18:32:32;;;;;;;5.85;1.67;;;;;;;;;;5001715;28;20074;-82
2021/11/09 18:34:58;;;;;;;5.93;1.77;;;;;;;;;;5004044;28;20054;-83
2021/11/09 18:37:25;;;;;;;5.15;1.88;;;;;;;;;;5008108;28;20058;-82
2021/11/09 18:39:52;;;;;;;6.43;1.70;;;;;;;;;;5001740;28;20451;-82
2021/11/09 18:42:22;;;;;;;3.90;1.63;;;;;;;;;;5005579;28;20050;-81
2021/11/09 18:44:49;;;;;;;6.88;1.83;;;;;;;;;;5005676;28;20080;-82
2021/11/09 18:47:16;;;;;;;4.53;1.52;;;;;;;;;;5007590;28;20065;-82
2021/11/09 18:49:42;;;;;;;6.40;1.92;;;;;;;;;;5004967;28;20595;-83
2021/11/09 18:52:09;;;;;;;5.72;2.17;;;;;;;;;;5008195;28;20228;-84
2021/11/09 18:54:36;;;;;;;5.38;1.90;;;;;;;;;;5000207;28;20066;-86
2021/11/09 18:57:03;;;;;;;3.65;1.75;;;;;;;;;;4989212;28;20050;-86
2021/11/09 18:59:30;;;;;;;5.13;1.83;;;;;;;;;;4991328;28;20097;-84
2021/11/09 19:01:56;;;;;;;5.55;1.75;;;;;;;;;;4988568;28;20053;-86
2021/11/09 19:04:24;;;;;;;5.50;2.05;;;;;;;;;;4989478;28;20565;-85
2021/11/09 19:06:50;;;;;;;4.50;1.80;;;;;;;;;;4990767;28;20112;-84
2021/11/09 19:09:18;;;;;;;10.00;2.20;;;;;;;;;;4989767;28;20050;-85
2021/11/09 19:11:47;;;;;;;5.88;2.20;;;;;;;;;;4988994;28;20057;-86
2021/11/09 19:14:14;;;;;;;6.88;2.80;;;;;;;;;;4990461;28;20482;-83
2021/11/09 19:16:41;;;;;;;6.70;1.95;;;;;;;;;;4990854;28;20133;-81
2021/11/09 19:19:08;;;;;;;5.60;2.00;;;;;;;;;;4990115;28;20135;-82